createdAt,value
2023-03-22T00:00:03.162Z,1005.1
2023-03-22T00:15:02.484Z,1004.9
2023-03-22T00:30:03.114Z,1004.8
2023-03-22T00:45:02.343Z,1004.8
2023-03-22T01:00:02.793Z,1004.8
2023-03-22T01:15:03.241Z,1004.6
2023-03-22T01:30:02.655Z,1004.5
2023-03-22T01:45:03.171Z,1004.3
2023-03-22T02:00:02.525Z,1004.2
2023-03-22T02:15:03.179Z,1004.0
2023-03-22T02:30:02.434Z,1004.0
2023-03-22T02:45:02.850Z,1003.9
2023-03-22T03:00:02.338Z,1003.7
2023-03-22T03:15:02.741Z,1003.5
2023-03-22T03:30:02.201Z,1003.4
2023-03-22T03:45:02.615Z,1003.4
2023-03-22T04:00:03.213Z,1003.2
2023-03-22T04:15:02.480Z,1003.5
2023-03-22T04:30:02.931Z,1003.2
2023-03-22T04:45:02.376Z,1003.0
2023-03-22T05:00:02.823Z,1003.0
2023-03-22T05:15:03.240Z,1002.9
2023-03-22T05:30:02.650Z,1002.8
2023-03-22T05:45:03.244Z,1002.8
2023-03-22T06:00:02.553Z,1002.8
2023-03-22T06:15:02.981Z,1002.8
2023-03-22T06:30:02.433Z,1002.6
2023-03-22T06:45:02.884Z,1002.5
2023-03-22T07:00:02.293Z,1002.4
2023-03-22T07:15:02.741Z,1002.4
2023-03-22T07:30:02.253Z,1002.3
2023-03-22T07:45:02.669Z,1002.1
2023-03-22T08:00:03.252Z,1002.1
2023-03-22T08:15:02.701Z,1002.1
2023-03-22T08:30:02.956Z,1002.0
2023-03-22T08:45:02.376Z,1002.0
2023-03-22T09:00:02.826Z,1002.0
2023-03-22T09:15:03.295Z,1001.9
2023-03-22T09:30:02.701Z,1001.9
2023-03-22T09:45:03.269Z,1001.8
2023-03-22T10:00:02.557Z,1001.8
2023-03-22T10:15:03.207Z,1001.7
2023-03-22T10:30:02.443Z,1001.8
2023-03-22T10:45:02.887Z,1001.8
2023-03-22T11:00:02.365Z,1001.7
2023-03-22T11:15:02.802Z,1001.8
2023-03-22T11:30:02.282Z,1001.7
2023-03-22T11:45:02.645Z,1001.7
2023-03-22T12:00:03.305Z,1001.6
2023-03-22T12:15:02.520Z,1001.6
2023-03-22T12:30:02.978Z,1001.5
2023-03-22T12:45:05.525Z,1001.7
2023-03-22T13:15:03.342Z,1001.8
2023-03-22T13:30:02.705Z,1001.8
2023-03-22T13:45:03.351Z,1001.7
2023-03-22T14:00:14.259Z,1001.4
2023-03-22T15:00:03.376Z,1001.5
2023-03-22T15:15:02.773Z,1001.6
2023-03-22T15:30:02.306Z,1001.6
2023-03-22T15:45:02.675Z,1001.5
2023-03-22T16:00:03.318Z,1001.6
2023-03-22T16:15:02.559Z,1001.3
2023-03-22T16:30:03.017Z,1001.5
2023-03-22T16:45:02.435Z,1001.5
2023-03-22T17:00:02.887Z,1001.5
2023-03-22T17:15:02.412Z,1001.3
2023-03-22T17:30:02.782Z,1001.3
2023-03-22T17:45:02.348Z,1001.2
2023-03-22T18:00:02.671Z,1001.2
2023-03-22T18:15:03.264Z,1001.2
2023-03-22T18:30:02.536Z,1000.9
2023-03-22T18:45:02.992Z,1000.7
2023-03-22T19:00:02.398Z,1001.0
2023-03-22T19:15:21.459Z,1000.8
2023-03-22T19:30:02.357Z,1000.6
2023-03-22T19:45:02.740Z,1000.6
2023-03-22T20:00:43.991Z,1000.4
2023-03-22T20:15:02.604Z,1000.4
2023-03-22T20:30:02.054Z,1000.1
2023-03-22T20:45:02.473Z,1000.1
2023-03-22T21:00:02.917Z,1000.1
2023-03-22T21:15:02.376Z,999.9
2023-03-22T21:30:02.773Z,999.9
2023-03-22T21:45:03.383Z,999.9
2023-03-22T22:00:02.653Z,999.7
2023-03-22T22:15:03.100Z,999.7
2023-03-22T22:45:02.971Z,999.6
2023-03-22T23:00:02.409Z,999.4
2023-03-22T23:15:02.834Z,999.2
2023-03-22T23:30:02.409Z,999.2
2023-03-22T23:45:02.701Z,999.0
